Maupiti Airport

NTTP · Leeward Islands, French Polynesia

METAR NTTP · Maupiti Airport

23 六月 10:30 LT
34m
使用的METAR站距离机场307 km。
罗盘
风向 的 风向 180° Maupiti Airport 8/26
风: 14 kt, 4 beaufort


14 kt
改变
0 ft 5.000 10.000 15.000 20.000
Cloud Cloud
FEW 2.300
Cloud Cloud Cloud Cloud
SCT 5.000
Cloud Cloud Cloud Cloud Cloud Cloud
BKN 13.000
METAR NTAA 232030Z 18014KT 9999 FEW023 SCT050 BKN130 27/20 Q1014 NOSIG

METAR Maupiti Airport - NTTP/MAU

Maupiti Airport是,French Polynesia中的中型机场。 该机场位于纬度-16,42650和经度-152,24370。 该机场有一条跑道: 8/26. 本场的ICAO机场代码为NTTP。 该机场的IATA代码为MAU。 机场在Tahiti FIR中。

该航空气象观测是针对Faa'a International Airport在2024年6月23日 10:30, 当地时间进行的。

机场观察

风向为180°,速度为14 kt。

可见度为10 km 或者更多。

有几云在2.300 ft的高度, 疏云,零星散落的云朵在5.000 ft的高度 和 碎云在13.000 ft的高度。 破损或更高的上限为13.000 ft。

温度和风寒是27 °C。 热指数为29。 露点为20 °C,相对湿度为66%。 海平面上的气压为1014 hPa (QNH)。

白天

今天,太阳从06:36升起,在17:45降落。 这适用于Maupiti Airport,世界夏令时可能有所不同。 当地时间与世界标准时间之间的时差为-10 小时。 夏令时目前正在进行中。

公司介绍

我们没有关于这个机场的公司信息。

体会

到Vliegles.nl去找飞行课程,跳伞和其他飞行体验。 浏览页面,了解Maupiti Airport附近所有可用的活动。 你也可以使用搜索功能来寻找你所在地附近的特定飞行课程、跳伞或其他飞行体验。

跑道

Id 标题 侧风 逆风 侧风 %
8/26 088°-268° 14 kt 100 %

逆风成分最大的方向会被突出显示,并用于横风计算。 这并不一定意味着这个方向在使用。

乌云

2.300 ft FEW 几云
5.000 ft SCT 疏云,零星散落的云朵
13.000 ft BKN 碎云

温度 & 天气

温度 27 °C
露点 20 °C
相对湿度 66%
热度指数 29 °C
Kp-index 2 (0-9)

白天

日出
06:28
中午
12:00
日落
17:33 (6:29)

小工具

你想在你的网站上有一个关于Maupiti Airport的当前航空天气(METAR)的小部件吗?

显示HTML代码
报告变更